sensor_id;sensor_type;location;lat;lon;timestamp;pressure;altitude;pressure_sealevel;temperature;humidity
74561;BME280;62979;55.720;37.606;2022-12-24T00:01:38;98766.78;;;3.17;76.62
74561;BME280;62979;55.720;37.606;2022-12-24T00:04:05;98789.09;;;3.24;76.40
74561;BME280;62979;55.720;37.606;2022-12-24T00:06:32;98760.03;;;3.04;76.24
74561;BME280;62979;55.720;37.606;2022-12-24T00:08:59;98773.72;;;3.13;76.78
74561;BME280;62979;55.720;37.606;2022-12-24T00:11:26;98756.56;;;3.08;76.56
74561;BME280;62979;55.720;37.606;2022-12-24T00:13:54;98774.59;;;3.11;76.68
74561;BME280;62979;55.720;37.606;2022-12-24T00:16:21;98777.09;;;3.17;76.47
74561;BME280;62979;55.720;37.606;2022-12-24T00:18:48;98767.66;;;3.16;76.49
74561;BME280;62979;55.720;37.606;2022-12-24T00:21:15;98759.81;;;3.25;76.53
74561;BME280;62979;55.720;37.606;2022-12-24T00:23:42;98759.75;;;3.31;76.26
74561;BME280;62979;55.720;37.606;2022-12-24T00:26:09;98758.94;;;3.28;75.53
74561;BME280;62979;55.720;37.606;2022-12-24T00:28:37;98765.03;;;3.20;75.90
74561;BME280;62979;55.720;37.606;2022-12-24T00:31:09;98769.31;;;3.23;75.89
74561;BME280;62979;55.720;37.606;2022-12-24T00:33:37;98766.72;;;3.23;75.97
74561;BME280;62979;55.720;37.606;2022-12-24T00:36:05;98776.13;;;3.30;76.26
74561;BME280;62979;55.720;37.606;2022-12-24T00:38:33;98778.72;;;3.30;76.03
74561;BME280;62979;55.720;37.606;2022-12-24T00:41:00;98764.91;;;3.31;75.95
74561;BME280;62979;55.720;37.606;2022-12-24T00:43:29;98765.00;;;3.25;75.56
74561;BME280;62979;55.720;37.606;2022-12-24T00:45:58;98774.47;;;3.23;75.81
74561;BME280;62979;55.720;37.606;2022-12-24T00:48:26;98782.22;;;3.25;75.88
74561;BME280;62979;55.720;37.606;2022-12-24T00:50:53;98779.72;;;3.14;76.11
74561;BME280;62979;55.720;37.606;2022-12-24T00:53:20;98788.34;;;3.14;76.21
74561;BME280;62979;55.720;37.606;2022-12-24T00:55:47;98789.25;;;3.09;76.44
74561;BME280;62979;55.720;37.606;2022-12-24T00:58:14;98788.44;;;3.02;76.54
74561;BME280;62979;55.720;37.606;2022-12-24T01:00:41;98789.25;;;3.07;76.71
74561;BME280;62979;55.720;37.606;2022-12-24T01:03:07;98784.13;;;3.04;76.91
74561;BME280;62979;55.720;37.606;2022-12-24T01:05:36;98788.44;;;3.05;76.76
74561;BME280;62979;55.720;37.606;2022-12-24T01:08:02;98792.66;;;3.14;76.64
74561;BME280;62979;55.720;37.606;2022-12-24T01:10:29;98777.22;;;3.08;76.83
74561;BME280;62979;55.720;37.606;2022-12-24T01:12:55;98787.56;;;3.05;76.67
74561;BME280;62979;55.720;37.606;2022-12-24T01:15:22;98801.34;;;3.02;76.79
74561;BME280;62979;55.720;37.606;2022-12-24T01:17:49;98776.44;;;2.96;76.73
74561;BME280;62979;55.720;37.606;2022-12-24T01:20:16;98773.88;;;2.96;76.78
74561;BME280;62979;55.720;37.606;2022-12-24T01:22:45;98776.34;;;3.07;76.64
74561;BME280;62979;55.720;37.606;2022-12-24T01:25:14;98773.72;;;3.12;76.99
74561;BME280;62979;55.720;37.606;2022-12-24T01:27:41;98780.66;;;3.10;76.71
74561;BME280;62979;55.720;37.606;2022-12-24T01:30:12;98779.00;;;3.03;76.81
74561;BME280;62979;55.720;37.606;2022-12-24T01:32:40;98775.44;;;3.11;76.89
74561;BME280;62979;55.720;37.606;2022-12-24T01:35:08;98778.00;;;3.16;76.73
74561;BME280;62979;55.720;37.606;2022-12-24T01:37:36;98776.28;;;3.15;76.70
74561;BME280;62979;55.720;37.606;2022-12-24T01:40:06;98783.19;;;3.11;76.72
74561;BME280;62979;55.720;37.606;2022-12-24T01:42:55;98769.44;;;3.11;76.79
74561;BME280;62979;55.720;37.606;2022-12-24T01:45:44;98776.31;;;3.13;76.79
74561;BME280;62979;55.720;37.606;2022-12-24T01:48:16;98787.41;;;3.23;76.64
74561;BME280;62979;55.720;37.606;2022-12-24T01:50:48;98784.00;;;3.16;76.46
74561;BME280;62979;55.720;37.606;2022-12-24T01:53:20;98795.28;;;3.09;76.58
74561;BME280;62979;55.720;37.606;2022-12-24T01:55:49;98787.56;;;3.05;76.37
74561;BME280;62979;55.720;37.606;2022-12-24T01:58:19;98785.72;;;3.19;76.66
74561;BME280;62979;55.720;37.606;2022-12-24T02:00:49;98782.19;;;3.26;76.56
74561;BME280;62979;55.720;37.606;2022-12-24T02:03:17;98790.75;;;3.34;76.44
74561;BME280;62979;55.720;37.606;2022-12-24T02:05:46;98793.41;;;3.24;75.96
74561;BME280;62979;55.720;37.606;2022-12-24T02:08:16;98801.25;;;3.17;76.00
74561;BME280;62979;55.720;37.606;2022-12-24T02:10:43;98806.31;;;3.28;76.17
74561;BME280;62979;55.720;37.606;2022-12-24T02:13:13;98801.09;;;3.33;75.99
74561;BME280;62979;55.720;37.606;2022-12-24T02:15:52;98803.63;;;3.36;75.86
74561;BME280;62979;55.720;37.606;2022-12-24T02:18:33;98804.53;;;3.33;75.71
74561;BME280;62979;55.720;37.606;2022-12-24T02:21:22;98792.53;;;3.28;75.38
74561;BME280;62979;55.720;37.606;2022-12-24T02:24:43;98798.50;;;3.33;75.63
74561;BME280;62979;55.720;37.606;2022-12-24T02:27:36;98800.41;;;3.14;75.85
74561;BME280;62979;55.720;37.606;2022-12-24T02:30:17;98796.88;;;3.21;76.05
74561;BME280;62979;55.720;37.606;2022-12-24T02:35:55;98806.22;;;3.37;75.83
74561;BME280;62979;55.720;37.606;2022-12-24T02:38:31;98795.94;;;3.31;75.76
74561;BME280;62979;55.720;37.606;2022-12-24T02:41:02;98795.88;;;3.37;76.00
74561;BME280;62979;55.720;37.606;2022-12-24T02:43:36;98796.72;;;3.36;75.76
74561;BME280;62979;55.720;37.606;2022-12-24T02:46:11;98791.56;;;3.39;75.83
74561;BME280;62979;55.720;37.606;2022-12-24T02:48:43;98799.31;;;3.36;75.69
74561;BME280;62979;55.720;37.606;2022-12-24T02:51:12;98803.50;;;3.48;76.01
74561;BME280;62979;55.720;37.606;2022-12-24T02:53:40;98803.44;;;3.56;75.51
74561;BME280;62979;55.720;37.606;2022-12-24T02:56:33;98801.69;;;3.59;75.00
74561;BME280;62979;55.720;37.606;2022-12-24T03:02:23;98795.66;;;3.56;75.20
74561;BME280;62979;55.720;37.606;2022-12-24T03:05:06;98788.75;;;3.61;75.17
74561;BME280;62979;55.720;37.606;2022-12-24T03:07:50;98792.09;;;3.69;74.93
74561;BME280;62979;55.720;37.606;2022-12-24T03:10:30;98787.81;;;3.67;74.72
74561;BME280;62979;55.720;37.606;2022-12-24T03:13:05;98788.63;;;3.70;74.54
74561;BME280;62979;55.720;37.606;2022-12-24T03:15:39;98788.56;;;3.76;74.89
74561;BME280;62979;55.720;37.606;2022-12-24T03:18:12;98796.28;;;3.81;74.37
74561;BME280;62979;55.720;37.606;2022-12-24T03:20:43;98803.97;;;3.85;74.49
74561;BME280;62979;55.720;37.606;2022-12-24T03:23:14;98800.72;;;3.68;74.04
74561;BME280;62979;55.720;37.606;2022-12-24T03:25:43;98800.78;;;3.62;74.40
74561;BME280;62979;55.720;37.606;2022-12-24T03:28:12;98799.16;;;3.53;74.47
74561;BME280;62979;55.720;37.606;2022-12-24T03:30:43;98804.44;;;3.44;74.39
74561;BME280;62979;55.720;37.606;2022-12-24T03:33:14;98804.53;;;3.35;74.61
74561;BME280;62979;55.720;37.606;2022-12-24T03:35:42;98792.44;;;3.34;75.24
74561;BME280;62979;55.720;37.606;2022-12-24T03:38:09;98794.09;;;3.42;75.39
74561;BME280;62979;55.720;37.606;2022-12-24T03:40:36;98797.56;;;3.41;75.20
74561;BME280;62979;55.720;37.606;2022-12-24T03:43:03;98798.34;;;3.48;75.07
74561;BME280;62979;55.720;37.606;2022-12-24T03:45:30;98793.97;;;3.55;75.14
74561;BME280;62979;55.720;37.606;2022-12-24T03:47:56;98799.16;;;3.55;75.10
74561;BME280;62979;55.720;37.606;2022-12-24T03:50:25;98799.16;;;3.55;74.81
74561;BME280;62979;55.720;37.606;2022-12-24T03:52:52;98797.44;;;3.54;74.99
74561;BME280;62979;55.720;37.606;2022-12-24T03:55:19;98794.09;;;3.44;74.80
74561;BME280;62979;55.720;37.606;2022-12-24T03:57:47;98797.53;;;3.43;75.08
74561;BME280;62979;55.720;37.606;2022-12-24T04:00:14;98794.88;;;3.51;75.17
74561;BME280;62979;55.720;37.606;2022-12-24T04:02:42;98799.22;;;3.46;74.94
74561;BME280;62979;55.720;37.606;2022-12-24T04:05:12;98792.28;;;3.51;74.98
74561;BME280;62979;55.720;37.606;2022-12-24T04:07:41;98785.41;;;3.48;74.94
74561;BME280;62979;55.720;37.606;2022-12-24T04:10:09;98788.03;;;3.43;74.98
74561;BME280;62979;55.720;37.606;2022-12-24T04:12:37;98775.16;;;3.42;75.15
74561;BME280;62979;55.720;37.606;2022-12-24T04:15:05;98788.94;;;3.41;75.12
74561;BME280;62979;55.720;37.606;2022-12-24T04:17:35;98777.72;;;3.45;75.17
74561;BME280;62979;55.720;37.606;2022-12-24T04:20:02;98775.16;;;3.39;74.83
74561;BME280;62979;55.720;37.606;2022-12-24T04:22:30;98783.75;;;3.42;75.08
74561;BME280;62979;55.720;37.606;2022-12-24T04:24:58;98770.97;;;3.30;75.24
74561;BME280;62979;55.720;37.606;2022-12-24T04:27:25;98782.97;;;3.37;75.35
74561;BME280;62979;55.720;37.606;2022-12-24T04:29:52;98768.34;;;3.33;75.31
74561;BME280;62979;55.720;37.606;2022-12-24T04:32:19;98769.19;;;3.34;75.12
74561;BME280;62979;55.720;37.606;2022-12-24T04:34:46;98773.47;;;3.39;75.12
74561;BME280;62979;55.720;37.606;2022-12-24T04:37:13;98763.13;;;3.39;75.11
74561;BME280;62979;55.720;37.606;2022-12-24T04:39:40;98772.72;;;3.28;75.37
74561;BME280;62979;55.720;37.606;2022-12-24T04:42:08;98766.63;;;3.34;75.46
74561;BME280;62979;55.720;37.606;2022-12-24T04:44:35;98764.81;;;3.40;75.33
74561;BME280;62979;55.720;37.606;2022-12-24T04:47:02;98764.88;;;3.37;75.18
74561;BME280;62979;55.720;37.606;2022-12-24T04:49:29;98752.94;;;3.24;75.40
74561;BME280;62979;55.720;37.606;2022-12-24T04:51:56;98764.19;;;3.20;75.46
74561;BME280;62979;55.720;37.606;2022-12-24T04:54:23;98762.41;;;3.24;75.50
74561;BME280;62979;55.720;37.606;2022-12-24T04:56:49;98756.44;;;3.17;75.61
74561;BME280;62979;55.720;37.606;2022-12-24T04:59:18;98776.22;;;3.21;75.74
74561;BME280;62979;55.720;37.606;2022-12-24T05:01:45;98768.56;;;3.12;76.11
74561;BME280;62979;55.720;37.606;2022-12-24T05:04:12;98752.28;;;3.05;76.22
74561;BME280;62979;55.720;37.606;2022-12-24T05:06:38;98763.38;;;3.12;76.34
74561;BME280;62979;55.720;37.606;2022-12-24T05:09:06;98753.09;;;3.09;76.23
74561;BME280;62979;55.720;37.606;2022-12-24T05:11:32;98751.31;;;3.14;76.28
74561;BME280;62979;55.720;37.606;2022-12-24T05:13:59;98744.38;;;3.19;76.31
74561;BME280;62979;55.720;37.606;2022-12-24T05:16:28;98742.59;;;3.24;76.11
74561;BME280;62979;55.720;37.606;2022-12-24T05:18:55;98749.44;;;3.30;75.91
74561;BME280;62979;55.720;37.606;2022-12-24T05:21:23;98750.34;;;3.24;75.92
74561;BME280;62979;55.720;37.606;2022-12-24T05:23:50;98752.84;;;3.35;76.01
74561;BME280;62979;55.720;37.606;2022-12-24T05:26:38;98744.31;;;3.24;75.80
74561;BME280;62979;55.720;37.606;2022-12-24T05:29:09;98743.44;;;3.26;75.82
74561;BME280;62979;55.720;37.606;2022-12-24T05:31:39;98741.69;;;3.30;75.79
74561;BME280;62979;55.720;37.606;2022-12-24T05:34:07;98743.44;;;3.29;75.81
74561;BME280;62979;55.720;37.606;2022-12-24T05:36:34;98752.84;;;3.33;75.73
74561;BME280;62979;55.720;37.606;2022-12-24T05:39:02;98742.63;;;3.21;76.04
74561;BME280;62979;55.720;37.606;2022-12-24T05:41:30;98739.19;;;3.22;76.02
74561;BME280;62979;55.720;37.606;2022-12-24T05:43:57;98753.81;;;3.23;76.07
74561;BME280;62979;55.720;37.606;2022-12-24T05:46:24;98745.22;;;3.22;76.18
74561;BME280;62979;55.720;37.606;2022-12-24T05:48:52;98736.63;;;3.19;76.37
74561;BME280;62979;55.720;37.606;2022-12-24T05:51:21;98735.72;;;3.23;76.32
74561;BME280;62979;55.720;37.606;2022-12-24T05:53:49;98742.59;;;3.24;76.59
74561;BME280;62979;55.720;37.606;2022-12-24T05:56:22;98722.91;;;3.15;76.29
74561;BME280;62979;55.720;37.606;2022-12-24T05:58:50;98730.59;;;3.18;76.40
74561;BME280;62979;55.720;37.606;2022-12-24T06:01:19;98738.31;;;3.21;76.21
74561;BME280;62979;55.720;37.606;2022-12-24T06:03:48;98747.81;;;3.21;76.32
74561;BME280;62979;55.720;37.606;2022-12-24T06:06:18;98740.03;;;3.22;76.42
74561;BME280;62979;55.720;37.606;2022-12-24T06:08:48;98737.47;;;3.21;76.37
74561;BME280;62979;55.720;37.606;2022-12-24T06:11:18;98716.94;;;3.09;76.73
74561;BME280;62979;55.720;37.606;2022-12-24T06:13:47;98737.50;;;3.18;76.36
74561;BME280;62979;55.720;37.606;2022-12-24T06:16:16;98744.38;;;3.19;76.41
74561;BME280;62979;55.720;37.606;2022-12-24T06:18:44;98738.31;;;3.23;76.37
74561;BME280;62979;55.720;37.606;2022-12-24T06:21:13;98744.38;;;3.22;76.37
74561;BME280;62979;55.720;37.606;2022-12-24T06:23:43;98749.50;;;3.25;76.32
74561;BME280;62979;55.720;37.606;2022-12-24T06:26:14;98743.53;;;3.20;76.41
74561;BME280;62979;55.720;37.606;2022-12-24T06:28:42;98740.09;;;3.16;76.68
74561;BME280;62979;55.720;37.606;2022-12-24T06:31:12;98742.84;;;3.03;76.97
74561;BME280;62979;55.720;37.606;2022-12-24T06:33:40;98717.00;;;3.03;76.97
74561;BME280;62979;55.720;37.606;2022-12-24T06:36:12;98741.75;;;3.25;76.73
74561;BME280;62979;55.720;37.606;2022-12-24T06:38:42;98734.03;;;3.20;76.71
74561;BME280;62979;55.720;37.606;2022-12-24T06:41:08;98740.91;;;3.23;76.84
74561;BME280;62979;55.720;37.606;2022-12-24T06:43:35;98745.22;;;3.22;76.77
74561;BME280;62979;55.720;37.606;2022-12-24T06:46:03;98738.31;;;3.21;76.95
74561;BME280;62979;55.720;37.606;2022-12-24T06:48:30;98743.47;;;3.23;76.97
74561;BME280;62979;55.720;37.606;2022-12-24T06:50:57;98740.91;;;3.23;76.99
74561;BME280;62979;55.720;37.606;2022-12-24T06:53:24;98730.56;;;3.23;76.96
74561;BME280;62979;55.720;37.606;2022-12-24T06:55:52;98724.50;;;3.24;76.94
74561;BME280;62979;55.720;37.606;2022-12-24T06:58:19;98716.81;;;3.21;77.10
74561;BME280;62979;55.720;37.606;2022-12-24T07:00:46;98744.31;;;3.24;77.09
74561;BME280;62979;55.720;37.606;2022-12-24T07:03:14;98730.53;;;3.26;77.35
74561;BME280;62979;55.720;37.606;2022-12-24T07:05:40;98727.94;;;3.26;77.34
74561;BME280;62979;55.720;37.606;2022-12-24T07:08:08;98715.16;;;3.14;77.22
74561;BME280;62979;55.720;37.606;2022-12-24T07:10:35;98724.59;;;3.19;77.47
74561;BME280;62979;55.720;37.606;2022-12-24T07:13:03;98733.16;;;3.21;77.66
74561;BME280;62979;55.720;37.606;2022-12-24T07:15:30;98728.81;;;3.25;77.31
74561;BME280;62979;55.720;37.606;2022-12-24T07:17:57;98722.78;;;3.26;77.20
74561;BME280;62979;55.720;37.606;2022-12-24T07:20:24;98726.25;;;3.25;77.19
74561;BME280;62979;55.720;37.606;2022-12-24T07:22:51;98727.91;;;3.31;77.10
74561;BME280;62979;55.720;37.606;2022-12-24T07:25:17;98732.13;;;3.36;76.96
74561;BME280;62979;55.720;37.606;2022-12-24T07:27:44;98727.00;;;3.33;76.81
74561;BME280;62979;55.720;37.606;2022-12-24T07:30:13;98722.63;;;3.38;76.86
74561;BME280;62979;55.720;37.606;2022-12-24T07:32:40;98721.78;;;3.36;76.84
74561;BME280;62979;55.720;37.606;2022-12-24T07:35:08;98718.44;;;3.28;76.80
74561;BME280;62979;55.720;37.606;2022-12-24T07:37:35;98727.09;;;3.26;77.05
74561;BME280;62979;55.720;37.606;2022-12-24T07:40:03;98727.09;;;3.27;77.06
74561;BME280;62979;55.720;37.606;2022-12-24T07:42:32;98741.66;;;3.33;76.61
74561;BME280;62979;55.720;37.606;2022-12-24T07:44:59;98722.81;;;3.23;76.72
74561;BME280;62979;55.720;37.606;2022-12-24T07:47:27;98745.19;;;3.26;76.70
74561;BME280;62979;55.720;37.606;2022-12-24T07:49:54;98734.00;;;3.25;76.85
74561;BME280;62979;55.720;37.606;2022-12-24T07:52:21;98722.91;;;3.14;76.62
74561;BME280;62979;55.720;37.606;2022-12-24T07:54:48;98731.50;;;3.17;76.66
74561;BME280;62979;55.720;37.606;2022-12-24T07:57:15;98734.84;;;3.26;76.45
74561;BME280;62979;55.720;37.606;2022-12-24T07:59:42;98729.72;;;3.22;76.52
74561;BME280;62979;55.720;37.606;2022-12-24T08:02:09;98718.44;;;3.27;76.67
74561;BME280;62979;55.720;37.606;2022-12-24T08:04:38;98723.63;;;3.28;76.48
74561;BME280;62979;55.720;37.606;2022-12-24T08:07:05;98737.41;;;3.27;76.77
74561;BME280;62979;55.720;37.606;2022-12-24T08:09:33;98738.28;;;3.28;76.61
74561;BME280;62979;55.720;37.606;2022-12-24T08:12:01;98732.22;;;3.30;76.60
74561;BME280;62979;55.720;37.606;2022-12-24T08:14:28;98730.50;;;3.28;76.45
74561;BME280;62979;55.720;37.606;2022-12-24T08:16:56;98735.69;;;3.26;76.38
74561;BME280;62979;55.720;37.606;2022-12-24T08:19:23;98727.09;;;3.26;76.28
74561;BME280;62979;55.720;37.606;2022-12-24T08:21:52;98734.78;;;3.32;76.33
74561;BME280;62979;55.720;37.606;2022-12-24T08:24:19;98736.50;;;3.31;76.12
74561;BME280;62979;55.720;37.606;2022-12-24T08:26:45;98708.28;;;3.13;75.98
74561;BME280;62979;55.720;37.606;2022-12-24T08:29:13;98717.78;;;3.12;76.28
74561;BME280;62979;55.720;37.606;2022-12-24T08:31:40;98727.13;;;3.21;76.38
74561;BME280;62979;55.720;37.606;2022-12-24T08:34:08;98734.00;;;3.25;75.89
74561;BME280;62979;55.720;37.606;2022-12-24T08:36:36;98733.16;;;3.21;75.78
74561;BME280;62979;55.720;37.606;2022-12-24T08:39:04;98722.84;;;3.18;76.15
74561;BME280;62979;55.720;37.606;2022-12-24T08:41:33;98714.34;;;3.10;76.20
74561;BME280;62979;55.720;37.606;2022-12-24T08:44:00;98724.69;;;3.09;76.58
74561;BME280;62979;55.720;37.606;2022-12-24T08:46:27;98716.94;;;3.09;76.81
74561;BME280;62979;55.720;37.606;2022-12-24T08:48:54;98722.84;;;3.18;76.76
74561;BME280;62979;55.720;37.606;2022-12-24T08:51:21;98710.91;;;3.10;76.59
74561;BME280;62979;55.720;37.606;2022-12-24T08:53:47;98718.56;;;3.16;76.54
74561;BME280;62979;55.720;37.606;2022-12-24T08:56:16;98722.00;;;3.19;76.45
74561;BME280;62979;55.720;37.606;2022-12-24T08:58:43;98714.28;;;3.15;76.26
74561;BME280;62979;55.720;37.606;2022-12-24T09:01:11;98699.69;;;3.11;76.07
74561;BME280;62979;55.720;37.606;2022-12-24T09:03:40;98714.25;;;3.18;76.18
74561;BME280;62979;55.720;37.606;2022-12-24T09:06:08;98715.09;;;3.20;76.43
74561;BME280;62979;55.720;37.606;2022-12-24T09:08:35;98711.53;;;3.29;76.73
74561;BME280;62979;55.720;37.606;2022-12-24T09:11:04;98692.84;;;3.10;75.99
74561;BME280;62979;55.720;37.606;2022-12-24T09:13:33;98703.03;;;3.22;75.74
74561;BME280;62979;55.720;37.606;2022-12-24T09:16:00;98712.56;;;3.15;75.80
74561;BME280;62979;55.720;37.606;2022-12-24T09:18:28;98703.94;;;3.18;76.44
74561;BME280;62979;55.720;37.606;2022-12-24T09:20:59;98697.06;;;3.14;76.24
74561;BME280;62979;55.720;37.606;2022-12-24T09:23:27;98704.00;;;3.09;76.12
74561;BME280;62979;55.720;37.606;2022-12-24T09:25:55;98700.50;;;3.14;76.56
74561;BME280;62979;55.720;37.606;2022-12-24T09:28:22;98704.81;;;3.15;76.30
74561;BME280;62979;55.720;37.606;2022-12-24T09:30:58;98697.94;;;3.13;75.99
74561;BME280;62979;55.720;37.606;2022-12-24T09:33:27;98705.66;;;3.14;75.98
74561;BME280;62979;55.720;37.606;2022-12-24T09:35:55;98699.72;;;3.08;76.11
74561;BME280;62979;55.720;37.606;2022-12-24T09:38:22;98689.31;;;3.14;76.13
74561;BME280;62979;55.720;37.606;2022-12-24T09:40:51;98683.34;;;3.10;76.40
74561;BME280;62979;55.720;37.606;2022-12-24T09:43:21;98687.72;;;3.04;76.14
74561;BME280;62979;55.720;37.606;2022-12-24T09:46:00;98694.47;;;3.15;76.53
74561;BME280;62979;55.720;37.606;2022-12-24T09:48:39;98679.13;;;3.02;76.11
74561;BME280;62979;55.720;37.606;2022-12-24T09:51:11;98691.16;;;3.04;76.25
74561;BME280;62979;55.720;37.606;2022-12-24T09:53:50;98686.81;;;3.05;76.34
74561;BME280;62979;55.720;37.606;2022-12-24T09:56:25;98686.00;;;3.01;76.30
74561;BME280;62979;55.720;37.606;2022-12-24T09:58:58;98691.16;;;3.04;76.54
74561;BME280;62979;55.720;37.606;2022-12-24T10:01:28;98678.31;;;2.96;76.95
74561;BME280;62979;55.720;37.606;2022-12-24T10:03:58;98686.81;;;3.05;76.83
74561;BME280;62979;55.720;37.606;2022-12-24T10:06:35;98684.28;;;3.03;77.05
74561;BME280;62979;55.720;37.606;2022-12-24T10:09:19;98678.31;;;2.98;76.91
74561;BME280;62979;55.720;37.606;2022-12-24T10:11:59;98692.84;;;3.07;76.82
74561;BME280;62979;55.720;37.606;2022-12-24T10:14:54;98691.06;;;3.12;77.68
74561;BME280;62979;55.720;37.606;2022-12-24T10:17:45;98686.06;;;2.96;77.42
74561;BME280;62979;55.720;37.606;2022-12-24T10:20:32;98674.94;;;2.90;77.78
74561;BME280;62979;55.720;37.606;2022-12-24T10:23:13;98690.34;;;2.99;78.57
74561;BME280;62979;55.720;37.606;2022-12-24T10:25:50;98697.19;;;3.02;78.27
74561;BME280;62979;55.720;37.606;2022-12-24T10:28:39;98692.03;;;3.02;78.47
74561;BME280;62979;55.720;37.606;2022-12-24T10:31:13;98698.88;;;3.06;78.37
74561;BME280;62979;55.720;37.606;2022-12-24T10:33:42;98686.78;;;3.12;78.67
74561;BME280;62979;55.720;37.606;2022-12-24T10:36:15;98696.22;;;3.12;78.48
74561;BME280;62979;55.720;37.606;2022-12-24T10:38:43;98706.59;;;3.09;77.77
74561;BME280;62979;55.720;37.606;2022-12-24T10:41:12;98695.41;;;3.08;77.87
74561;BME280;62979;55.720;37.606;2022-12-24T10:43:42;98684.16;;;3.14;77.62
74561;BME280;62979;55.720;37.606;2022-12-24T10:46:17;98689.41;;;3.08;77.47
74561;BME280;62979;55.720;37.606;2022-12-24T10:48:51;98697.13;;;3.09;77.82
74561;BME280;62979;55.720;37.606;2022-12-24T10:51:30;98691.09;;;3.10;77.53
74561;BME280;62979;55.720;37.606;2022-12-24T10:54:09;98695.31;;;3.16;77.81
74561;BME280;62979;55.720;37.606;2022-12-24T10:56:40;98691.03;;;3.15;77.29
74561;BME280;62979;55.720;37.606;2022-12-24T10:59:23;98687.53;;;3.19;77.57
74561;BME280;62979;55.720;37.606;2022-12-24T11:01:54;98701.34;;;3.18;77.34
74561;BME280;62979;55.720;37.606;2022-12-24T11:04:23;98688.47;;;3.15;77.05
74561;BME280;62979;55.720;37.606;2022-12-24T11:06:54;98698.00;;;3.10;77.16
74561;BME280;62979;55.720;37.606;2022-12-24T11:09:26;98698.75;;;3.18;77.53
74561;BME280;62979;55.720;37.606;2022-12-24T11:11:56;98703.03;;;3.22;77.25
74561;BME280;62979;55.720;37.606;2022-12-24T11:14:27;98718.56;;;3.16;77.21
74561;BME280;62979;55.720;37.606;2022-12-24T11:17:01;98707.41;;;3.14;77.34
74561;BME280;62979;55.720;37.606;2022-12-24T11:19:31;98712.53;;;3.17;77.54
74561;BME280;62979;55.720;37.606;2022-12-24T11:22:03;98729.84;;;3.09;77.18
74561;BME280;62979;55.720;37.606;2022-12-24T11:24:32;98726.53;;;2.96;78.04
74561;BME280;62979;55.720;37.606;2022-12-24T11:27:26;98724.78;;;2.96;78.98
74561;BME280;62979;55.720;37.606;2022-12-24T11:30:26;98728.25;;;2.95;79.00
74561;BME280;62979;55.720;37.606;2022-12-24T11:33:20;98720.56;;;2.88;78.05
74561;BME280;62979;55.720;37.606;2022-12-24T11:35:57;98736.94;;;2.88;78.76
74561;BME280;62979;55.720;37.606;2022-12-24T11:38:29;98732.69;;;2.81;79.34
74561;BME280;62979;55.720;37.606;2022-12-24T11:41:00;98723.28;;;2.74;78.73
74561;BME280;62979;55.720;37.606;2022-12-24T11:43:41;98741.34;;;2.74;79.10
74561;BME280;62979;55.720;37.606;2022-12-24T11:46:19;98739.69;;;2.65;78.77
74561;BME280;62979;55.720;37.606;2022-12-24T11:49:05;98743.13;;;2.69;80.55
74561;BME280;62979;55.720;37.606;2022-12-24T11:51:59;98743.97;;;2.69;79.87
74561;BME280;62979;55.720;37.606;2022-12-24T11:54:50;98760.28;;;2.73;79.63
74561;BME280;62979;55.720;37.606;2022-12-24T11:57:34;98762.91;;;2.71;79.16
74561;BME280;62979;55.720;37.606;2022-12-24T12:00:12;98756.97;;;2.59;79.03
74561;BME280;62979;55.720;37.606;2022-12-24T12:02:42;98777.63;;;2.57;78.75
74561;BME280;62979;55.720;37.606;2022-12-24T12:05:16;98768.25;;;2.47;78.98
74561;BME280;62979;55.720;37.606;2022-12-24T12:07:49;98775.16;;;2.40;79.02
74561;BME280;62979;55.720;37.606;2022-12-24T12:10:22;98758.78;;;2.41;79.27
74561;BME280;62979;55.720;37.606;2022-12-24T12:12:58;98779.31;;;2.58;79.71
74561;BME280;62979;55.720;37.606;2022-12-24T12:15:32;98765.56;;;2.57;79.42
74561;BME280;62979;55.720;37.606;2022-12-24T12:18:05;98773.25;;;2.67;79.35
74561;BME280;62979;55.720;37.606;2022-12-24T12:20:40;98775.88;;;2.64;79.10
74561;BME280;62979;55.720;37.606;2022-12-24T12:23:14;98780.16;;;2.65;79.08
74561;BME280;62979;55.720;37.606;2022-12-24T12:25:48;98781.91;;;2.60;79.13
74561;BME280;62979;55.720;37.606;2022-12-24T12:28:21;98778.47;;;2.59;79.34
74561;BME280;62979;55.720;37.606;2022-12-24T12:30:55;98802.56;;;2.61;78.94
74561;BME280;62979;55.720;37.606;2022-12-24T12:33:31;98793.13;;;2.54;78.86
74561;BME280;62979;55.720;37.606;2022-12-24T12:36:08;98793.13;;;2.54;78.61
74561;BME280;62979;55.720;37.606;2022-12-24T12:38:38;98801.66;;;2.61;79.04
74561;BME280;62979;55.720;37.606;2022-12-24T12:41:23;98799.13;;;2.57;78.30
74561;BME280;62979;55.720;37.606;2022-12-24T12:44:10;98807.69;;;2.64;78.68
74561;BME280;62979;55.720;37.606;2022-12-24T12:50:04;98822.31;;;2.61;78.24
74561;BME280;62979;55.720;37.606;2022-12-24T12:52:54;98814.56;;;2.61;78.51
74561;BME280;62979;55.720;37.606;2022-12-24T12:55:44;98818.00;;;2.64;78.25
74561;BME280;62979;55.720;37.606;2022-12-24T12:58:24;98811.97;;;2.67;78.52
74561;BME280;62979;55.720;37.606;2022-12-24T13:01:00;98792.38;;;2.38;77.60
74561;BME280;62979;55.720;37.606;2022-12-24T13:03:50;98818.88;;;2.62;77.85
74561;BME280;62979;55.720;37.606;2022-12-24T13:10:16;98824.13;;;2.49;77.91
74561;BME280;62979;55.720;37.606;2022-12-24T13:13:17;98824.97;;;2.50;77.73
74561;BME280;62979;55.720;37.606;2022-12-24T13:16:18;98836.09;;;2.60;78.18
74561;BME280;62979;55.720;37.606;2022-12-24T13:19:06;98827.47;;;2.61;78.25
74561;BME280;62979;55.720;37.606;2022-12-24T13:21:48;98845.56;;;2.62;77.72
74561;BME280;62979;55.720;37.606;2022-12-24T13:24:21;98839.56;;;2.55;77.57
74561;BME280;62979;55.720;37.606;2022-12-24T13:27:05;98855.00;;;2.66;78.06
74561;BME280;62979;55.720;37.606;2022-12-24T13:29:45;98861.00;;;2.71;77.76
74561;BME280;62979;55.720;37.606;2022-12-24T13:32:46;98854.97;;;2.71;77.83
74561;BME280;62979;55.720;37.606;2022-12-24T13:38:38;98863.53;;;2.79;77.74
74561;BME280;62979;55.720;37.606;2022-12-24T13:41:37;98869.59;;;2.70;77.53